KMTW/MTW METAR and TAF weather

Enter ICAO airport designator
Station Type Date Time Source
KMTW METAR 2021/04/14 19:15 UTC NOAA

KMTW 141915Z AUTO 28013KT 10SM BKN027 BKN040 OVC048 04/M01 A3004 RMK AO2


Station Type Date Time Source
KMTW Decoded METAR 2021/04/14 19:15 UTC NOAA

Manitowoc, Manitowoc County Airport, WI, United States (KMTW) 44-08N 087-41W
Apr 14, 2021 - 03:15 PM EDT / 2021.04.14 1915 UTC
Wind: from the W (280 degrees) at 15 MPH (13 KT):0
Visibility: 10 mile(s):0
Sky conditions: overcast
Temperature: 39 F (4 C)
Dew Point: 30 F (-1 C)
Relative Humidity: 69%
Pressure (altimeter): 30.04 in. Hg (1017 hPa)
ob: KMTW 141915Z AUTO 28013KT 10SM BKN027 BKN040 OVC048 04/M01 A3004 RMK AO2
cycle: 19

Station Type Date Time Source
KMTW TAF 2021/04/14 20:34 UTC NOAA

TAF
AMD KMTW 141932Z 1420/1518 29009KT P6SM SCT025 OVC040
TEMPO 1420/1424 BKN025
FM150200 29007KT P6SM -SHRA OVC022
FM150400 32011G16KT P6SM -SHRASN BKN018
FM151100 32013G21KT P6SM BKN025
FM151600 33013G19KT P6SM BKN035

Example: see airport list